sensor_id;sensor_type;location;lat;lon;timestamp;temperature;humidity
68691;DHT22;55675;49.588;8.640;2022-08-25T00:01:35;24.60;49.70
68691;DHT22;55675;49.588;8.640;2022-08-25T00:04:03;24.60;49.50
68691;DHT22;55675;49.588;8.640;2022-08-25T00:06:30;24.70;49.70
68691;DHT22;55675;49.588;8.640;2022-08-25T00:08:56;24.70;49.60
68691;DHT22;55675;49.588;8.640;2022-08-25T00:11:26;24.70;49.60
68691;DHT22;55675;49.588;8.640;2022-08-25T00:13:56;24.70;49.60
68691;DHT22;55675;49.588;8.640;2022-08-25T00:16:23;24.70;49.70
68691;DHT22;55675;49.588;8.640;2022-08-25T00:18:53;24.70;49.90
68691;DHT22;55675;49.588;8.640;2022-08-25T00:21:20;24.70;49.90
68691;DHT22;55675;49.588;8.640;2022-08-25T00:23:45;24.70;50.00
68691;DHT22;55675;49.588;8.640;2022-08-25T00:26:12;24.70;50.20
68691;DHT22;55675;49.588;8.640;2022-08-25T00:28:38;24.70;50.20
68691;DHT22;55675;49.588;8.640;2022-08-25T00:31:05;24.60;50.00
68691;DHT22;55675;49.588;8.640;2022-08-25T00:33:32;24.60;50.30
68691;DHT22;55675;49.588;8.640;2022-08-25T00:35:59;24.60;50.40
68691;DHT22;55675;49.588;8.640;2022-08-25T00:38:26;24.60;50.70
68691;DHT22;55675;49.588;8.640;2022-08-25T00:40:52;24.50;50.60
68691;DHT22;55675;49.588;8.640;2022-08-25T00:43:57;24.50;50.70
68691;DHT22;55675;49.588;8.640;2022-08-25T00:46:26;24.50;50.80
68691;DHT22;55675;49.588;8.640;2022-08-25T00:48:56;24.50;51.20
68691;DHT22;55675;49.588;8.640;2022-08-25T00:51:32;24.40;51.20
68691;DHT22;55675;49.588;8.640;2022-08-25T00:54:01;24.40;51.50
68691;DHT22;55675;49.588;8.640;2022-08-25T00:56:28;24.40;51.40
68691;DHT22;55675;49.588;8.640;2022-08-25T00:58:54;24.40;51.50
68691;DHT22;55675;49.588;8.640;2022-08-25T01:01:20;24.40;52.00
68691;DHT22;55675;49.588;8.640;2022-08-25T01:03:45;24.40;52.00
68691;DHT22;55675;49.588;8.640;2022-08-25T01:06:11;24.40;52.20
68691;DHT22;55675;49.588;8.640;2022-08-25T01:08:37;24.40;52.30
68691;DHT22;55675;49.588;8.640;2022-08-25T01:11:06;24.40;52.40
68691;DHT22;55675;49.588;8.640;2022-08-25T01:13:38;24.40;52.40
68691;DHT22;55675;49.588;8.640;2022-08-25T01:16:04;24.30;52.50
68691;DHT22;55675;49.588;8.640;2022-08-25T01:18:43;24.30;52.70
68691;DHT22;55675;49.588;8.640;2022-08-25T01:21:09;24.30;52.60
68691;DHT22;55675;49.588;8.640;2022-08-25T01:23:35;24.30;52.50
68691;DHT22;55675;49.588;8.640;2022-08-25T01:26:08;24.30;52.50
68691;DHT22;55675;49.588;8.640;2022-08-25T01:28:35;24.20;52.60
68691;DHT22;55675;49.588;8.640;2022-08-25T01:31:01;24.10;52.60
68691;DHT22;55675;49.588;8.640;2022-08-25T01:33:27;24.10;52.90
68691;DHT22;55675;49.588;8.640;2022-08-25T01:35:53;24.00;52.90
68691;DHT22;55675;49.588;8.640;2022-08-25T01:38:19;23.90;53.30
68691;DHT22;55675;49.588;8.640;2022-08-25T01:40:45;23.90;53.30
68691;DHT22;55675;49.588;8.640;2022-08-25T01:45:43;23.70;53.70
68691;DHT22;55675;49.588;8.640;2022-08-25T01:48:10;23.60;54.10
68691;DHT22;55675;49.588;8.640;2022-08-25T01:50:37;23.60;54.70
68691;DHT22;55675;49.588;8.640;2022-08-25T01:53:22;23.50;54.80
68691;DHT22;55675;49.588;8.640;2022-08-25T01:55:48;23.40;54.90
68691;DHT22;55675;49.588;8.640;2022-08-25T02:00:47;23.20;55.70
68691;DHT22;55675;49.588;8.640;2022-08-25T02:03:13;23.10;55.70
68691;DHT22;55675;49.588;8.640;2022-08-25T02:05:39;23.00;55.80
68691;DHT22;55675;49.588;8.640;2022-08-25T02:08:05;23.00;56.20
68691;DHT22;55675;49.588;8.640;2022-08-25T02:10:32;22.90;56.40
68691;DHT22;55675;49.588;8.640;2022-08-25T02:12:57;22.90;56.40
68691;DHT22;55675;49.588;8.640;2022-08-25T02:15:23;22.90;56.70
68691;DHT22;55675;49.588;8.640;2022-08-25T02:17:49;22.80;56.80
68691;DHT22;55675;49.588;8.640;2022-08-25T02:20:14;22.80;57.10
68691;DHT22;55675;49.588;8.640;2022-08-25T02:22:40;22.70;57.20
68691;DHT22;55675;49.588;8.640;2022-08-25T02:25:06;22.70;57.70
68691;DHT22;55675;49.588;8.640;2022-08-25T02:27:31;22.60;57.90
68691;DHT22;55675;49.588;8.640;2022-08-25T02:29:57;22.60;58.00
68691;DHT22;55675;49.588;8.640;2022-08-25T02:32:22;22.60;58.20
68691;DHT22;55675;49.588;8.640;2022-08-25T02:34:48;22.50;58.40
68691;DHT22;55675;49.588;8.640;2022-08-25T02:37:13;22.50;58.90
68691;DHT22;55675;49.588;8.640;2022-08-25T02:39:39;22.50;58.70
68691;DHT22;55675;49.588;8.640;2022-08-25T02:42:05;22.50;59.00
68691;DHT22;55675;49.588;8.640;2022-08-25T02:44:30;22.50;58.80
68691;DHT22;55675;49.588;8.640;2022-08-25T02:46:56;22.50;59.10
68691;DHT22;55675;49.588;8.640;2022-08-25T02:49:22;22.40;59.20
68691;DHT22;55675;49.588;8.640;2022-08-25T02:51:47;22.40;59.20
68691;DHT22;55675;49.588;8.640;2022-08-25T02:54:13;22.30;59.40
68691;DHT22;55675;49.588;8.640;2022-08-25T02:56:38;22.30;59.40
68691;DHT22;55675;49.588;8.640;2022-08-25T02:59:04;22.30;59.60
68691;DHT22;55675;49.588;8.640;2022-08-25T03:01:31;22.20;60.00
68691;DHT22;55675;49.588;8.640;2022-08-25T03:03:57;22.20;60.20
68691;DHT22;55675;49.588;8.640;2022-08-25T03:06:23;22.20;60.20
68691;DHT22;55675;49.588;8.640;2022-08-25T03:08:49;22.10;60.60
68691;DHT22;55675;49.588;8.640;2022-08-25T03:11:15;22.10;60.80
68691;DHT22;55675;49.588;8.640;2022-08-25T03:13:41;22.10;61.00
68691;DHT22;55675;49.588;8.640;2022-08-25T03:16:07;22.00;61.00
68691;DHT22;55675;49.588;8.640;2022-08-25T03:18:35;22.00;61.80
68691;DHT22;55675;49.588;8.640;2022-08-25T03:21:01;22.10;62.00
68691;DHT22;55675;49.588;8.640;2022-08-25T03:23:27;22.10;62.00
68691;DHT22;55675;49.588;8.640;2022-08-25T03:25:54;22.00;62.50
68691;DHT22;55675;49.588;8.640;2022-08-25T03:28:39;22.10;63.20
68691;DHT22;55675;49.588;8.640;2022-08-25T03:31:05;22.10;62.60
68691;DHT22;55675;49.588;8.640;2022-08-25T03:33:32;22.10;62.90
68691;DHT22;55675;49.588;8.640;2022-08-25T03:35:57;22.10;62.60
68691;DHT22;55675;49.588;8.640;2022-08-25T03:38:24;22.10;62.60
68691;DHT22;55675;49.588;8.640;2022-08-25T03:40:50;22.10;62.60
68691;DHT22;55675;49.588;8.640;2022-08-25T03:43:17;22.10;62.60
68691;DHT22;55675;49.588;8.640;2022-08-25T03:45:44;22.10;63.00
68691;DHT22;55675;49.588;8.640;2022-08-25T03:48:10;22.00;63.00
68691;DHT22;55675;49.588;8.640;2022-08-25T03:50:36;22.00;63.30
68691;DHT22;55675;49.588;8.640;2022-08-25T03:53:02;21.90;63.10
68691;DHT22;55675;49.588;8.640;2022-08-25T03:55:27;21.90;63.50
68691;DHT22;55675;49.588;8.640;2022-08-25T03:57:53;21.90;64.10
68691;DHT22;55675;49.588;8.640;2022-08-25T04:00:21;21.90;64.20
68691;DHT22;55675;49.588;8.640;2022-08-25T04:02:46;21.90;64.40
68691;DHT22;55675;49.588;8.640;2022-08-25T04:05:12;21.90;64.30
68691;DHT22;55675;49.588;8.640;2022-08-25T04:07:38;21.90;64.40
68691;DHT22;55675;49.588;8.640;2022-08-25T04:10:08;21.80;64.40
68691;DHT22;55675;49.588;8.640;2022-08-25T04:12:34;21.80;64.10
68691;DHT22;55675;49.588;8.640;2022-08-25T04:15:00;21.70;63.80
68691;DHT22;55675;49.588;8.640;2022-08-25T04:17:26;21.70;64.10
68691;DHT22;55675;49.588;8.640;2022-08-25T04:19:52;21.60;64.90
68691;DHT22;55675;49.588;8.640;2022-08-25T04:22:17;21.60;64.90
68691;DHT22;55675;49.588;8.640;2022-08-25T04:24:44;21.60;65.60
68691;DHT22;55675;49.588;8.640;2022-08-25T04:27:09;21.60;65.90
68691;DHT22;55675;49.588;8.640;2022-08-25T04:29:35;21.60;66.00
68691;DHT22;55675;49.588;8.640;2022-08-25T04:32:00;21.60;66.10
68691;DHT22;55675;49.588;8.640;2022-08-25T04:34:26;21.60;66.40
68691;DHT22;55675;49.588;8.640;2022-08-25T04:36:52;21.50;66.10
68691;DHT22;55675;49.588;8.640;2022-08-25T04:39:19;21.50;66.60
68691;DHT22;55675;49.588;8.640;2022-08-25T04:41:47;21.50;66.70
68691;DHT22;55675;49.588;8.640;2022-08-25T04:44:13;21.50;66.50
68691;DHT22;55675;49.588;8.640;2022-08-25T04:46:38;21.60;67.20
68691;DHT22;55675;49.588;8.640;2022-08-25T04:49:04;21.50;67.30
68691;DHT22;55675;49.588;8.640;2022-08-25T04:51:33;21.50;67.50
68691;DHT22;55675;49.588;8.640;2022-08-25T04:54:03;21.30;65.70
68691;DHT22;55675;49.588;8.640;2022-08-25T04:56:30;21.30;65.90
68691;DHT22;55675;49.588;8.640;2022-08-25T04:59:01;21.30;66.50
68691;DHT22;55675;49.588;8.640;2022-08-25T05:01:26;21.30;66.90
68691;DHT22;55675;49.588;8.640;2022-08-25T05:03:57;21.30;66.40
68691;DHT22;55675;49.588;8.640;2022-08-25T05:06:24;21.30;66.70
68691;DHT22;55675;49.588;8.640;2022-08-25T05:08:50;21.20;66.50
68691;DHT22;55675;49.588;8.640;2022-08-25T05:11:16;21.30;67.00
68691;DHT22;55675;49.588;8.640;2022-08-25T05:13:44;21.30;67.40
68691;DHT22;55675;49.588;8.640;2022-08-25T05:16:10;21.40;67.00
68691;DHT22;55675;49.588;8.640;2022-08-25T05:18:35;21.50;67.40
68691;DHT22;55675;49.588;8.640;2022-08-25T05:21:08;21.60;67.20
68691;DHT22;55675;49.588;8.640;2022-08-25T05:23:34;21.70;67.20
68691;DHT22;55675;49.588;8.640;2022-08-25T05:26:04;21.70;66.90
68691;DHT22;55675;49.588;8.640;2022-08-25T05:28:30;21.80;66.80
68691;DHT22;55675;49.588;8.640;2022-08-25T05:31:01;21.90;66.80
68691;DHT22;55675;49.588;8.640;2022-08-25T05:33:27;22.00;66.90
68691;DHT22;55675;49.588;8.640;2022-08-25T05:35:53;22.10;66.60
68691;DHT22;55675;49.588;8.640;2022-08-25T05:38:19;22.10;66.40
68691;DHT22;55675;49.588;8.640;2022-08-25T05:40:45;22.20;66.10
68691;DHT22;55675;49.588;8.640;2022-08-25T05:43:10;22.30;66.00
68691;DHT22;55675;49.588;8.640;2022-08-25T05:45:39;22.50;66.60
68691;DHT22;55675;49.588;8.640;2022-08-25T05:48:05;22.60;65.40
68691;DHT22;55675;49.588;8.640;2022-08-25T05:50:30;22.70;65.20
68691;DHT22;55675;49.588;8.640;2022-08-25T05:52:56;22.80;64.70
68691;DHT22;55675;49.588;8.640;2022-08-25T05:55:22;22.90;65.00
68691;DHT22;55675;49.588;8.640;2022-08-25T05:57:48;23.00;64.80
68691;DHT22;55675;49.588;8.640;2022-08-25T06:00:14;23.10;63.70
68691;DHT22;55675;49.588;8.640;2022-08-25T06:02:40;23.20;63.20
68691;DHT22;55675;49.588;8.640;2022-08-25T06:05:07;23.30;62.60
68691;DHT22;55675;49.588;8.640;2022-08-25T06:07:33;23.30;62.60
68691;DHT22;55675;49.588;8.640;2022-08-25T06:10:04;23.40;62.80
68691;DHT22;55675;49.588;8.640;2022-08-25T06:12:32;23.40;62.60
68691;DHT22;55675;49.588;8.640;2022-08-25T06:14:58;23.50;62.20
68691;DHT22;55675;49.588;8.640;2022-08-25T06:17:24;23.70;62.20
68691;DHT22;55675;49.588;8.640;2022-08-25T06:19:49;23.80;62.10
68691;DHT22;55675;49.588;8.640;2022-08-25T06:22:15;23.90;61.60
68691;DHT22;55675;49.588;8.640;2022-08-25T06:24:40;24.10;61.20
68691;DHT22;55675;49.588;8.640;2022-08-25T06:27:06;24.20;60.40
68691;DHT22;55675;49.588;8.640;2022-08-25T06:29:31;24.30;59.70
68691;DHT22;55675;49.588;8.640;2022-08-25T06:31:57;24.30;59.50
68691;DHT22;55675;49.588;8.640;2022-08-25T06:34:22;24.40;59.50
68691;DHT22;55675;49.588;8.640;2022-08-25T06:36:48;24.50;59.40
68691;DHT22;55675;49.588;8.640;2022-08-25T06:39:14;24.60;59.00
68691;DHT22;55675;49.588;8.640;2022-08-25T06:41:40;24.70;58.60
68691;DHT22;55675;49.588;8.640;2022-08-25T06:44:06;24.80;58.40
68691;DHT22;55675;49.588;8.640;2022-08-25T06:46:31;25.00;58.10
68691;DHT22;55675;49.588;8.640;2022-08-25T06:48:57;25.00;57.40
68691;DHT22;55675;49.588;8.640;2022-08-25T06:51:24;25.10;57.10
68691;DHT22;55675;49.588;8.640;2022-08-25T06:53:51;25.20;57.10
68691;DHT22;55675;49.588;8.640;2022-08-25T06:56:18;25.20;56.60
68691;DHT22;55675;49.588;8.640;2022-08-25T06:58:44;25.30;56.40
68691;DHT22;55675;49.588;8.640;2022-08-25T07:01:18;25.40;56.20
68691;DHT22;55675;49.588;8.640;2022-08-25T07:03:48;25.50;56.10
68691;DHT22;55675;49.588;8.640;2022-08-25T07:06:15;25.60;55.80
68691;DHT22;55675;49.588;8.640;2022-08-25T07:08:42;25.70;55.70
68691;DHT22;55675;49.588;8.640;2022-08-25T07:11:09;25.80;55.40
68691;DHT22;55675;49.588;8.640;2022-08-25T07:13:35;25.80;55.30
68691;DHT22;55675;49.588;8.640;2022-08-25T07:16:01;25.90;55.10
68691;DHT22;55675;49.588;8.640;2022-08-25T07:18:27;26.00;54.80
68691;DHT22;55675;49.588;8.640;2022-08-25T07:20:54;26.10;54.60
68691;DHT22;55675;49.588;8.640;2022-08-25T07:23:21;26.20;54.50
68691;DHT22;55675;49.588;8.640;2022-08-25T07:25:47;26.20;54.20
68691;DHT22;55675;49.588;8.640;2022-08-25T07:28:13;26.40;54.10
68691;DHT22;55675;49.588;8.640;2022-08-25T07:30:39;26.40;53.70
68691;DHT22;55675;49.588;8.640;2022-08-25T07:33:05;26.50;53.60
68691;DHT22;55675;49.588;8.640;2022-08-25T07:35:30;26.60;53.20
68691;DHT22;55675;49.588;8.640;2022-08-25T07:37:57;26.60;53.60
68691;DHT22;55675;49.588;8.640;2022-08-25T07:40:29;26.70;53.10
68691;DHT22;55675;49.588;8.640;2022-08-25T07:42:58;26.70;53.10
68691;DHT22;55675;49.588;8.640;2022-08-25T07:45:27;26.80;53.00
68691;DHT22;55675;49.588;8.640;2022-08-25T07:47:57;26.80;53.00
68691;DHT22;55675;49.588;8.640;2022-08-25T07:50:24;26.90;52.90
68691;DHT22;55675;49.588;8.640;2022-08-25T07:52:50;26.90;52.20
68691;DHT22;55675;49.588;8.640;2022-08-25T07:55:16;27.00;52.10
68691;DHT22;55675;49.588;8.640;2022-08-25T07:57:42;27.00;51.40
68691;DHT22;55675;49.588;8.640;2022-08-25T08:00:09;27.00;51.00
68691;DHT22;55675;49.588;8.640;2022-08-25T08:02:37;27.10;51.10
68691;DHT22;55675;49.588;8.640;2022-08-25T08:05:03;27.10;51.10
68691;DHT22;55675;49.588;8.640;2022-08-25T08:07:30;27.20;50.90
68691;DHT22;55675;49.588;8.640;2022-08-25T08:09:56;27.30;51.00
68691;DHT22;55675;49.588;8.640;2022-08-25T08:12:23;27.40;50.40
68691;DHT22;55675;49.588;8.640;2022-08-25T08:14:49;27.40;50.30
68691;DHT22;55675;49.588;8.640;2022-08-25T08:17:15;27.50;50.10
68691;DHT22;55675;49.588;8.640;2022-08-25T08:19:41;27.60;49.60
68691;DHT22;55675;49.588;8.640;2022-08-25T08:22:06;27.70;49.80
68691;DHT22;55675;49.588;8.640;2022-08-25T08:24:33;27.80;49.40
68691;DHT22;55675;49.588;8.640;2022-08-25T08:27:05;27.90;49.30
68691;DHT22;55675;49.588;8.640;2022-08-25T08:29:32;27.90;49.30
68691;DHT22;55675;49.588;8.640;2022-08-25T08:31:57;28.00;49.20
68691;DHT22;55675;49.588;8.640;2022-08-25T08:34:24;28.00;48.70
68691;DHT22;55675;49.588;8.640;2022-08-25T08:36:50;28.00;48.60
68691;DHT22;55675;49.588;8.640;2022-08-25T08:39:15;28.10;49.00
68691;DHT22;55675;49.588;8.640;2022-08-25T08:42:04;28.20;48.90
68691;DHT22;55675;49.588;8.640;2022-08-25T08:44:51;28.30;48.00
68691;DHT22;55675;49.588;8.640;2022-08-25T08:47:45;28.30;47.90
68691;DHT22;55675;49.588;8.640;2022-08-25T08:50:44;28.40;48.00
68691;DHT22;55675;49.588;8.640;2022-08-25T08:56:18;28.50;46.80
68691;DHT22;55675;49.588;8.640;2022-08-25T08:59:14;28.50;46.40
68691;DHT22;55675;49.588;8.640;2022-08-25T09:01:51;28.60;46.90
68691;DHT22;55675;49.588;8.640;2022-08-25T09:04:42;28.70;46.70
68691;DHT22;55675;49.588;8.640;2022-08-25T09:07:18;28.80;45.80
68691;DHT22;55675;49.588;8.640;2022-08-25T09:09:45;28.80;46.10
68691;DHT22;55675;49.588;8.640;2022-08-25T09:18:05;29.10;45.20
68691;DHT22;55675;49.588;8.640;2022-08-25T09:23:59;29.30;44.40
68691;DHT22;55675;49.588;8.640;2022-08-25T09:26:33;29.30;44.30
68691;DHT22;55675;49.588;8.640;2022-08-25T09:29:07;29.50;43.70
68691;DHT22;55675;49.588;8.640;2022-08-25T09:31:37;29.60;44.30
68691;DHT22;55675;49.588;8.640;2022-08-25T09:34:06;29.70;42.90
68691;DHT22;55675;49.588;8.640;2022-08-25T09:36:35;29.70;42.60
68691;DHT22;55675;49.588;8.640;2022-08-25T09:39:02;29.70;42.30
68691;DHT22;55675;49.588;8.640;2022-08-25T09:47:05;30.10;41.70
68691;DHT22;55675;49.588;8.640;2022-08-25T09:49:42;30.10;41.60
68691;DHT22;55675;49.588;8.640;2022-08-25T09:52:23;30.20;40.70
68691;DHT22;55675;49.588;8.640;2022-08-25T09:54:49;30.10;40.60
68691;DHT22;55675;49.588;8.640;2022-08-25T09:57:35;30.20;41.20
68691;DHT22;55675;49.588;8.640;2022-08-25T10:00:17;30.40;41.70
68691;DHT22;55675;49.588;8.640;2022-08-25T10:02:59;30.50;41.00
68691;DHT22;55675;49.588;8.640;2022-08-25T10:05:25;30.60;40.70
68691;DHT22;55675;49.588;8.640;2022-08-25T10:07:56;30.50;40.10
68691;DHT22;55675;49.588;8.640;2022-08-25T10:12:55;30.10;40.60
68691;DHT22;55675;49.588;8.640;2022-08-25T10:15:36;30.20;41.20
68691;DHT22;55675;49.588;8.640;2022-08-25T10:18:21;30.20;40.40
68691;DHT22;55675;49.588;8.640;2022-08-25T10:21:11;30.10;40.50
68691;DHT22;55675;49.588;8.640;2022-08-25T10:23:49;30.20;41.20
68691;DHT22;55675;49.588;8.640;2022-08-25T10:29:37;29.90;40.50
68691;DHT22;55675;49.588;8.640;2022-08-25T10:32:26;29.80;41.10
68691;DHT22;55675;49.588;8.640;2022-08-25T10:34:58;29.80;41.50
68691;DHT22;55675;49.588;8.640;2022-08-25T10:43:16;29.60;41.30
68691;DHT22;55675;49.588;8.640;2022-08-25T10:49:17;29.50;41.30
68691;DHT22;55675;49.588;8.640;2022-08-25T10:52:04;29.50;40.90
68691;DHT22;55675;49.588;8.640;2022-08-25T10:54:48;29.50;41.00
68691;DHT22;55675;49.588;8.640;2022-08-25T10:57:54;29.70;40.90
68691;DHT22;55675;49.588;8.640;2022-08-25T11:00:25;29.90;40.80
68691;DHT22;55675;49.588;8.640;2022-08-25T11:03:22;30.20;40.80
68691;DHT22;55675;49.588;8.640;2022-08-25T11:05:58;30.40;39.90
68691;DHT22;55675;49.588;8.640;2022-08-25T11:08:36;30.70;39.60
68691;DHT22;55675;49.588;8.640;2022-08-25T11:14:13;31.10;39.40
68691;DHT22;55675;49.588;8.640;2022-08-25T11:16:44;31.20;40.20
68691;DHT22;55675;49.588;8.640;2022-08-25T11:22:06;32.00;38.90
68691;DHT22;55675;49.588;8.640;2022-08-25T11:24:51;32.30;37.20
68691;DHT22;55675;49.588;8.640;2022-08-25T11:27:22;32.40;36.00
68691;DHT22;55675;49.588;8.640;2022-08-25T11:29:57;32.40;36.10
68691;DHT22;55675;49.588;8.640;2022-08-25T11:32:24;32.40;36.90
68691;DHT22;55675;49.588;8.640;2022-08-25T11:34:51;32.30;35.90
68691;DHT22;55675;49.588;8.640;2022-08-25T11:37:25;32.20;35.90
68691;DHT22;55675;49.588;8.640;2022-08-25T11:40:18;32.20;36.20
68691;DHT22;55675;49.588;8.640;2022-08-25T11:45:21;32.60;35.00
68691;DHT22;55675;49.588;8.640;2022-08-25T11:48:17;32.70;35.40
68691;DHT22;55675;49.588;8.640;2022-08-25T11:51:07;32.70;35.50
68691;DHT22;55675;49.588;8.640;2022-08-25T11:53:41;32.50;35.00
68691;DHT22;55675;49.588;8.640;2022-08-25T11:58:54;32.20;35.80
68691;DHT22;55675;49.588;8.640;2022-08-25T12:09:34;33.50;33.30
68691;DHT22;55675;49.588;8.640;2022-08-25T12:18:08;33.10;34.50
68691;DHT22;55675;49.588;8.640;2022-08-25T12:25:55;33.40;34.30
68691;DHT22;55675;49.588;8.640;2022-08-25T12:28:29;33.60;34.30
68691;DHT22;55675;49.588;8.640;2022-08-25T12:31:02;34.00;33.70
68691;DHT22;55675;49.588;8.640;2022-08-25T12:33:59;34.50;32.20
68691;DHT22;55675;49.588;8.640;2022-08-25T12:36:30;34.90;32.90
68691;DHT22;55675;49.588;8.640;2022-08-25T12:39:14;34.90;31.60
68691;DHT22;55675;49.588;8.640;2022-08-25T12:41:53;34.60;30.60
68691;DHT22;55675;49.588;8.640;2022-08-25T12:44:44;34.30;31.30
68691;DHT22;55675;49.588;8.640;2022-08-25T12:47:28;34.10;31.00
68691;DHT22;55675;49.588;8.640;2022-08-25T12:50:26;34.10;32.50
68691;DHT22;55675;49.588;8.640;2022-08-25T12:52:53;34.20;32.80
68691;DHT22;55675;49.588;8.640;2022-08-25T12:55:21;34.30;33.30
68691;DHT22;55675;49.588;8.640;2022-08-25T12:57:53;34.30;32.70
68691;DHT22;55675;49.588;8.640;2022-08-25T13:05:54;34.80;32.00
68691;DHT22;55675;49.588;8.640;2022-08-25T13:11:13;34.60;32.10
68691;DHT22;55675;49.588;8.640;2022-08-25T13:16:17;35.30;30.60
68691;DHT22;55675;49.588;8.640;2022-08-25T13:18:43;35.50;30.50
68691;DHT22;55675;49.588;8.640;2022-08-25T13:23:43;35.70;30.80
68691;DHT22;55675;49.588;8.640;2022-08-25T13:26:14;35.80;30.10
68691;DHT22;55675;49.588;8.640;2022-08-25T13:28:41;36.10;29.80
68691;DHT22;55675;49.588;8.640;2022-08-25T13:31:14;36.60;30.20
68691;DHT22;55675;49.588;8.640;2022-08-25T13:33:58;37.00;29.10
68691;DHT22;55675;49.588;8.640;2022-08-25T13:36:25;36.90;27.40
68691;DHT22;55675;49.588;8.640;2022-08-25T13:39:12;36.70;27.40
68691;DHT22;55675;49.588;8.640;2022-08-25T13:41:47;37.50;28.20
68691;DHT22;55675;49.588;8.640;2022-08-25T13:44:13;40.20;24.80
68691;DHT22;55675;49.588;8.640;2022-08-25T13:46:39;42.70;23.30
68691;DHT22;55675;49.588;8.640;2022-08-25T13:49:07;44.40;21.60
68691;DHT22;55675;49.588;8.640;2022-08-25T13:51:33;44.50;21.20
68691;DHT22;55675;49.588;8.640;2022-08-25T13:54:07;44.70;21.00
68691;DHT22;55675;49.588;8.640;2022-08-25T13:56:40;46.20;20.40
68691;DHT22;55675;49.588;8.640;2022-08-25T13:59:27;46.60;20.30
68691;DHT22;55675;49.588;8.640;2022-08-25T14:01:55;48.70;19.20
68691;DHT22;55675;49.588;8.640;2022-08-25T14:09:55;55.00;14.90
68691;DHT22;55675;49.588;8.640;2022-08-25T14:17:36;58.50;12.70
68691;DHT22;55675;49.588;8.640;2022-08-25T14:20:04;58.90;12.10
68691;DHT22;55675;49.588;8.640;2022-08-25T14:22:30;58.60;11.90
68691;DHT22;55675;49.588;8.640;2022-08-25T14:24:56;59.00;12.00
68691;DHT22;55675;49.588;8.640;2022-08-25T14:27:21;59.40;11.60
68691;DHT22;55675;49.588;8.640;2022-08-25T14:29:47;59.40;11.70
68691;DHT22;55675;49.588;8.640;2022-08-25T14:32:14;60.10;11.60
68691;DHT22;55675;49.588;8.640;2022-08-25T14:34:41;59.60;11.10
68691;DHT22;55675;49.588;8.640;2022-08-25T14:37:14;57.10;12.00
68691;DHT22;55675;49.588;8.640;2022-08-25T14:39:40;54.00;12.90
68691;DHT22;55675;49.588;8.640;2022-08-25T14:42:06;51.30;14.50
68691;DHT22;55675;49.588;8.640;2022-08-25T14:44:32;49.00;15.70
68691;DHT22;55675;49.588;8.640;2022-08-25T14:46:59;47.00;17.10
68691;DHT22;55675;49.588;8.640;2022-08-25T14:49:28;45.30;18.30
68691;DHT22;55675;49.588;8.640;2022-08-25T14:52:09;43.90;19.50
68691;DHT22;55675;49.588;8.640;2022-08-25T14:54:36;42.70;20.70
68691;DHT22;55675;49.588;8.640;2022-08-25T14:57:02;44.50;21.60
68691;DHT22;55675;49.588;8.640;2022-08-25T14:59:28;47.40;19.10
68691;DHT22;55675;49.588;8.640;2022-08-25T15:01:53;50.00;17.10
68691;DHT22;55675;49.588;8.640;2022-08-25T15:04:21;52.20;15.90
68691;DHT22;55675;49.588;8.640;2022-08-25T15:06:55;53.20;15.00
68691;DHT22;55675;49.588;8.640;2022-08-25T15:09:22;53.20;15.10
68691;DHT22;55675;49.588;8.640;2022-08-25T15:11:51;53.70;14.00
68691;DHT22;55675;49.588;8.640;2022-08-25T15:14:19;52.20;14.90
68691;DHT22;55675;49.588;8.640;2022-08-25T15:16:51;50.70;15.20
68691;DHT22;55675;49.588;8.640;2022-08-25T15:19:19;48.60;16.70
68691;DHT22;55675;49.588;8.640;2022-08-25T15:21:46;47.10;17.70
68691;DHT22;55675;49.588;8.640;2022-08-25T15:24:13;45.80;18.10
68691;DHT22;55675;49.588;8.640;2022-08-25T15:26:42;44.40;18.90
68691;DHT22;55675;49.588;8.640;2022-08-25T15:29:09;43.10;19.90
68691;DHT22;55675;49.588;8.640;2022-08-25T15:31:34;42.10;21.10
68691;DHT22;55675;49.588;8.640;2022-08-25T15:34:00;41.30;22.00
68691;DHT22;55675;49.588;8.640;2022-08-25T15:36:26;41.00;23.00
68691;DHT22;55675;49.588;8.640;2022-08-25T15:38:52;43.00;22.50
68691;DHT22;55675;49.588;8.640;2022-08-25T15:41:18;45.50;20.60
68691;DHT22;55675;49.588;8.640;2022-08-25T15:43:44;47.70;18.00
68691;DHT22;55675;49.588;8.640;2022-08-25T15:46:12;49.10;17.10
68691;DHT22;55675;49.588;8.640;2022-08-25T15:48:41;48.50;17.60
68691;DHT22;55675;49.588;8.640;2022-08-25T15:51:07;46.80;17.30
68691;DHT22;55675;49.588;8.640;2022-08-25T15:53:33;45.20;19.10
68691;DHT22;55675;49.588;8.640;2022-08-25T15:55:59;44.20;19.10
68691;DHT22;55675;49.588;8.640;2022-08-25T15:58:25;43.20;20.20
68691;DHT22;55675;49.588;8.640;2022-08-25T16:00:51;43.00;21.30
68691;DHT22;55675;49.588;8.640;2022-08-25T16:03:17;44.30;20.60
68691;DHT22;55675;49.588;8.640;2022-08-25T16:05:44;45.50;19.20
68691;DHT22;55675;49.588;8.640;2022-08-25T16:08:09;46.50;19.50
68691;DHT22;55675;49.588;8.640;2022-08-25T16:10:37;48.10;18.60
68691;DHT22;55675;49.588;8.640;2022-08-25T16:13:03;49.40;16.90
68691;DHT22;55675;49.588;8.640;2022-08-25T16:15:29;50.40;16.10
68691;DHT22;55675;49.588;8.640;2022-08-25T16:17:57;51.30;16.00
68691;DHT22;55675;49.588;8.640;2022-08-25T16:20:23;52.00;15.30
68691;DHT22;55675;49.588;8.640;2022-08-25T16:22:49;52.30;15.00
68691;DHT22;55675;49.588;8.640;2022-08-25T16:25:14;52.70;14.30
68691;DHT22;55675;49.588;8.640;2022-08-25T16:27:40;52.60;14.90
68691;DHT22;55675;49.588;8.640;2022-08-25T16:30:08;52.70;14.70
68691;DHT22;55675;49.588;8.640;2022-08-25T16:32:34;52.70;14.60
68691;DHT22;55675;49.588;8.640;2022-08-25T16:35:00;52.80;14.80
68691;DHT22;55675;49.588;8.640;2022-08-25T16:37:26;52.80;14.60
68691;DHT22;55675;49.588;8.640;2022-08-25T16:39:52;52.70;14.30
68691;DHT22;55675;49.588;8.640;2022-08-25T16:42:18;52.60;14.50
68691;DHT22;55675;49.588;8.640;2022-08-25T16:44:43;52.20;14.60
68691;DHT22;55675;49.588;8.640;2022-08-25T16:47:09;52.00;14.80
68691;DHT22;55675;49.588;8.640;2022-08-25T16:49:35;51.80;14.80
68691;DHT22;55675;49.588;8.640;2022-08-25T16:52:01;51.20;15.10
68691;DHT22;55675;49.588;8.640;2022-08-25T16:54:46;50.40;15.50
68691;DHT22;55675;49.588;8.640;2022-08-25T16:57:30;49.60;15.90
68691;DHT22;55675;49.588;8.640;2022-08-25T16:59:56;49.20;16.80
68691;DHT22;55675;49.588;8.640;2022-08-25T17:02:21;49.10;16.60
68691;DHT22;55675;49.588;8.640;2022-08-25T17:04:47;48.90;16.70
68691;DHT22;55675;49.588;8.640;2022-08-25T17:07:12;48.60;16.70
68691;DHT22;55675;49.588;8.640;2022-08-25T17:09:38;48.50;16.50
68691;DHT22;55675;49.588;8.640;2022-08-25T17:12:03;48.30;17.00
68691;DHT22;55675;49.588;8.640;2022-08-25T17:14:29;47.80;17.20
68691;DHT22;55675;49.588;8.640;2022-08-25T17:16:54;47.30;17.20